Time;durP1;ratioP1;P1;durP2;ratioP2;P2;SDS_P1;SDS_P2;PMS_P1;PMS_P2;Temp;Humidity;BMP_temperature;BMP_pressure;BME280_temperature;BME280_humidity;BME280_pressure;Samples;Min_cycle;Max_cycle;Signal;HPM_P1;HPM_P2
2023/05/25 00:00:38;;;;;;;5.63;2.67;;;9.30;99.90;;;;;;5097152;28;20062;-71
2023/05/25 00:03:04;;;;;;;5.55;2.40;;;8.70;99.90;;;;;;5096787;28;20498;-70
2023/05/25 00:05:30;;;;;;;7.60;3.00;;;8.70;99.90;;;;;;5097105;28;20061;-70
2023/05/25 00:07:55;;;;;;;6.03;2.40;;;8.70;99.90;;;;;;5097321;28;20467;-71
2023/05/25 00:10:21;;;;;;;4.10;2.38;;;8.70;99.90;;;;;;5096959;28;20083;-70
2023/05/25 00:12:47;;;;;;;8.20;2.75;;;8.60;99.90;;;;;;5096927;28;20039;-71
2023/05/25 00:15:12;;;;;;;8.60;2.58;;;8.60;99.90;;;;;;5095975;28;20039;-70
2023/05/25 00:17:39;;;;;;;5.20;2.90;;;8.60;99.90;;;;;;5096827;28;20032;-71
2023/05/25 00:20:06;;;;;;;4.93;2.60;;;9.00;99.90;;;;;;5096799;28;20044;-70
2023/05/25 00:22:33;;;;;;;3.83;2.60;;;8.50;99.90;;;;;;5096675;28;20483;-69
2023/05/25 00:24:59;;;;;;;6.40;2.75;;;8.50;99.90;;;;;;5096660;28;20043;-70
2023/05/25 00:27:24;;;;;;;5.80;2.58;;;8.50;99.90;;;;;;5096916;28;20118;-72
2023/05/25 00:29:50;;;;;;;9.40;3.00;;;8.50;99.90;;;;;;5095418;28;20468;-71
2023/05/25 00:32:15;;;;;;;7.40;3.05;;;8.40;99.90;;;;;;5095392;28;20066;-70
2023/05/25 00:34:41;;;;;;;7.53;2.95;;;9.00;99.90;;;;;;5096886;28;20119;-70
2023/05/25 00:37:06;;;;;;;4.80;2.40;;;8.50;99.90;;;;;;5096531;28;20047;-70
2023/05/25 00:39:32;;;;;;;5.95;2.67;;;8.30;99.90;;;;;;5096420;28;20044;-71
2023/05/25 00:41:59;;;;;;;4.53;2.72;;;8.20;99.90;;;;;;5096446;28;20040;-70
2023/05/25 00:44:26;;;;;;;4.40;2.85;;;8.30;99.90;;;;;;5096330;28;20100;-70
2023/05/25 00:46:52;;;;;;;5.43;2.92;;;8.30;99.90;;;;;;5096127;28;20048;-70
2023/05/25 00:49:20;;;;;;;8.00;2.90;;;8.30;99.90;;;;;;5096265;28;20353;-71
2023/05/25 00:51:46;;;;;;;7.97;2.80;;;8.30;99.90;;;;;;5096215;28;20040;-71
2023/05/25 00:54:15;;;;;;;6.18;3.05;;;8.20;99.90;;;;;;5096201;28;20094;-70
2023/05/25 00:56:54;;;;;;;3.92;2.88;;;8.20;99.90;;;;;;5096068;28;20086;-71
2023/05/25 00:59:35;;;;;;;6.63;3.10;;;8.20;99.90;;;;;;5095721;28;20638;-71
2023/05/25 01:02:09;;;;;;;6.20;3.00;;;8.20;99.90;;;;;;5096091;28;20047;-70
2023/05/25 01:04:40;;;;;;;5.13;2.92;;;8.20;99.90;;;;;;5095954;28;20044;-70
2023/05/25 01:07:08;;;;;;;5.45;3.15;;;8.20;99.90;;;;;;5095612;28;20138;-71
2023/05/25 01:09:38;;;;;;;5.50;2.67;;;8.20;99.90;;;;;;5095898;28;20036;-70
2023/05/25 01:12:05;;;;;;;6.47;2.85;;;8.20;99.90;;;;;;5096271;28;20044;-70
2023/05/25 01:14:33;;;;;;;7.57;3.30;;;8.20;99.90;;;;;;5095741;28;20059;-70
2023/05/25 01:16:59;;;;;;;6.35;3.00;;;8.80;99.90;;;;;;5095993;28;20051;-71
2023/05/25 01:19:25;;;;;;;5.57;2.63;;;9.00;99.90;;;;;;5095762;28;20048;-71
2023/05/25 01:21:56;;;;;;;8.55;2.78;;;8.10;99.90;;;;;;5095364;28;20474;-70
2023/05/25 01:24:41;;;;;;;8.35;3.15;;;8.00;99.90;;;;;;5095440;28;20032;-71
2023/05/25 01:27:22;;;;;;;6.70;3.30;;;8.00;99.90;;;;;;5095601;28;20176;-71
2023/05/25 01:29:48;;;;;;;9.60;3.28;;;8.00;99.90;;;;;;5095482;28;20360;-71
2023/05/25 01:32:16;;;;;;;5.93;3.00;;;8.00;99.90;;;;;;5095137;28;20035;-69
2023/05/25 01:34:43;;;;;;;5.55;2.78;;;7.90;99.90;;;;;;5094148;28;20036;-71
2023/05/25 01:37:12;;;;;;;5.00;3.08;;;8.20;99.90;;;;;;5094974;28;20044;-70
2023/05/25 01:39:39;;;;;;;3.70;2.70;;;7.90;99.90;;;;;;5095277;28;20048;-70
2023/05/25 01:42:05;;;;;;;7.43;3.25;;;8.20;99.90;;;;;;5095262;28;20045;-70
2023/05/25 01:44:30;;;;;;;5.75;3.03;;;7.90;99.90;;;;;;5095382;28;20376;-71
2023/05/25 01:47:06;;;;;;;6.63;2.95;;;7.80;99.90;;;;;;5094995;28;20043;-70
2023/05/25 01:50:09;;;;;;;7.82;2.97;;;7.80;99.90;;;;;;5095010;28;20076;-71
2023/05/25 01:52:40;;;;;;;7.53;2.80;;;7.80;99.90;;;;;;5095055;28;20040;-71
2023/05/25 01:55:13;;;;;;;6.70;2.95;;;7.80;99.90;;;;;;5095311;28;20470;-70
2023/05/25 01:57:42;;;;;;;5.88;2.72;;;7.80;99.90;;;;;;5095024;28;20039;-72
2023/05/25 02:00:12;;;;;;;5.88;2.78;;;8.40;99.90;;;;;;5094762;28;20361;-71
2023/05/25 02:02:40;;;;;;;6.35;2.85;;;7.70;99.90;;;;;;5094689;28;20075;-70
2023/05/25 02:05:07;;;;;;;10.13;3.20;;;7.70;99.90;;;;;;5094845;28;20157;-70
2023/05/25 02:07:33;;;;;;;7.05;2.95;;;7.70;99.90;;;;;;5094406;28;20052;-70
2023/05/25 02:09:58;;;;;;;7.80;2.92;;;7.80;99.90;;;;;;5094778;28;20040;-71
2023/05/25 02:12:24;;;;;;;7.07;3.13;;;7.70;99.90;;;;;;5094571;28;20127;-70
2023/05/25 02:14:50;;;;;;;5.03;2.60;;;7.60;99.90;;;;;;5095010;28;20044;-71
2023/05/25 02:17:17;;;;;;;7.43;2.83;;;7.90;99.90;;;;;;5094584;28;20047;-71
2023/05/25 02:19:43;;;;;;;;;;;7.60;99.90;;;;;;5094948;28;20072;-70
2023/05/25 02:22:09;;;;;;;6.75;2.80;;;7.60;99.90;;;;;;5094206;28;20053;-70
2023/05/25 02:24:36;;;;;;;6.05;3.30;;;8.10;99.90;;;;;;5094375;28;20130;-70
2023/05/25 02:27:05;;;;;;;5.75;2.97;;;7.60;99.90;;;;;;5093144;28;20134;-70
2023/05/25 02:29:31;;;;;;;8.65;3.45;;;7.60;99.90;;;;;;5094294;28;20065;-72
2023/05/25 02:31:57;;;;;;;11.45;3.63;;;7.60;99.90;;;;;;5094200;28;20036;-70
2023/05/25 02:34:23;;;;;;;14.15;3.10;;;7.50;99.90;;;;;;5094262;28;20369;-71
2023/05/25 02:36:49;;;;;;;5.43;2.70;;;7.50;99.90;;;;;;5094236;28;20047;-70
2023/05/25 02:39:15;;;;;;;5.23;3.00;;;7.40;99.90;;;;;;5094162;28;20040;-70
2023/05/25 02:41:41;;;;;;;8.80;2.85;;;7.40;99.90;;;;;;5094018;28;20062;-70
2023/05/25 02:44:07;;;;;;;7.55;3.45;;;8.30;99.90;;;;;;5094452;28;20375;-71
2023/05/25 02:46:33;;;;;;;6.85;2.80;;;7.40;99.90;;;;;;5094092;28;20039;-71
2023/05/25 02:48:59;;;;;;;6.95;3.38;;;7.40;99.90;;;;;;5094009;28;20042;-70
2023/05/25 02:51:25;;;;;;;6.18;3.45;;;7.40;99.90;;;;;;5094023;28;20123;-71
2023/05/25 02:53:51;;;;;;;4.80;3.00;;;7.40;99.90;;;;;;5093172;28;20044;-71
2023/05/25 02:56:17;;;;;;;7.22;3.13;;;7.30;99.90;;;;;;5093926;28;20117;-71
2023/05/25 02:58:43;;;;;;;8.60;3.75;;;8.10;99.90;;;;;;5093613;28;20085;-71
2023/05/25 03:01:09;;;;;;;6.18;3.13;;;7.30;99.90;;;;;;5094411;28;20123;-70
2023/05/25 03:03:35;;;;;;;9.52;3.20;;;7.40;99.90;;;;;;5093803;28;20047;-71
2023/05/25 03:06:02;;;;;;;4.63;3.00;;;7.30;99.90;;;;;;5093670;28;20046;-72
2023/05/25 03:08:29;;;;;;;10.57;3.60;;;7.30;99.90;;;;;;5093808;28;20040;-71
2023/05/25 03:10:55;;;;;;;7.07;3.25;;;7.30;99.90;;;;;;5093682;28;20040;-70
2023/05/25 03:13:20;;;;;;;6.40;3.42;;;7.30;99.90;;;;;;5094160;28;20184;-71
2023/05/25 03:15:46;;;;;;;6.97;3.10;;;7.30;99.90;;;;;;5093650;28;20040;-71
2023/05/25 03:18:11;;;;;;;5.65;3.05;;;7.20;99.90;;;;;;5093942;28;20040;-70
2023/05/25 03:20:37;;;;;;;8.82;3.55;;;7.30;99.90;;;;;;5093584;28;20478;-71
2023/05/25 03:23:03;;;;;;;6.28;3.22;;;7.20;99.90;;;;;;5093690;28;20039;-71
2023/05/25 03:25:28;;;;;;;6.82;2.90;;;7.20;99.90;;;;;;5093599;28;20460;-71
2023/05/25 03:27:54;;;;;;;9.63;3.55;;;7.20;99.90;;;;;;5093305;28;20142;-71
2023/05/25 03:30:21;;;;;;;10.13;3.63;;;7.20;99.90;;;;;;5094131;28;20040;-70
2023/05/25 03:32:47;;;;;;;7.43;3.55;;;7.20;99.90;;;;;;5093389;28;20032;-71
2023/05/25 03:35:12;;;;;;;6.88;3.17;;;7.20;99.90;;;;;;5093518;28;20040;-70
2023/05/25 03:37:38;;;;;;;7.60;3.47;;;7.30;99.90;;;;;;5093517;28;20043;-71
2023/05/25 03:40:04;;;;;;;6.93;3.30;;;8.00;99.90;;;;;;5093725;28;20101;-72
2023/05/25 03:42:30;;;;;;;6.25;3.35;;;7.20;99.90;;;;;;5093266;28;20036;-70
2023/05/25 03:44:55;;;;;;;9.65;3.58;;;7.20;99.90;;;;;;5093487;28;20043;-69
2023/05/25 03:47:21;;;;;;;6.45;3.35;;;7.20;99.90;;;;;;5093436;28;20039;-71
2023/05/25 03:49:46;;;;;;;8.60;4.05;;;7.30;99.90;;;;;;5093409;28;20046;-71
2023/05/25 03:52:12;;;;;;;7.43;3.58;;;7.30;99.90;;;;;;5093492;28;20040;-71
2023/05/25 03:54:38;;;;;;;6.68;3.33;;;7.30;99.90;;;;;;5093352;28;20080;-70
2023/05/25 03:57:03;;;;;;;5.82;3.40;;;7.70;99.90;;;;;;5093368;28;20044;-71
2023/05/25 03:59:30;;;;;;;9.77;3.63;;;7.40;99.90;;;;;;5093698;28;20472;-70
2023/05/25 04:01:55;;;;;;;5.90;3.23;;;7.40;99.90;;;;;;5093692;28;20421;-71
2023/05/25 04:04:21;;;;;;;9.75;3.42;;;7.80;99.90;;;;;;5093499;28;20040;-71
2023/05/25 04:06:47;;;;;;;6.95;3.75;;;7.40;99.90;;;;;;5096325;28;20048;-70
2023/05/25 04:09:17;;;;;;;7.28;3.47;;;7.50;99.90;;;;;;5095920;28;20043;-70
2023/05/25 04:11:46;;;;;;;9.85;3.70;;;7.50;99.90;;;;;;5095939;28;20075;-70
2023/05/25 04:14:11;;;;;;;9.52;3.58;;;7.60;99.90;;;;;;5095703;28;20119;-71
2023/05/25 04:16:39;;;;;;;6.30;3.35;;;7.60;99.90;;;;;;5096924;28;20144;-70
2023/05/25 04:19:05;;;;;;;8.38;3.78;;;7.70;99.90;;;;;;5096875;28;20044;-70
2023/05/25 04:21:31;;;;;;;7.05;3.70;;;7.70;99.90;;;;;;5096852;28;20055;-71
2023/05/25 04:23:57;;;;;;;8.18;3.60;;;7.80;99.90;;;;;;5096676;28;20044;-70
2023/05/25 04:26:25;;;;;;;8.77;3.80;;;7.80;99.90;;;;;;5096374;28;20086;-71
2023/05/25 04:28:53;;;;;;;7.70;4.18;;;7.80;99.90;;;;;;5096703;28;20082;-69
2023/05/25 04:31:19;;;;;;;5.53;3.60;;;7.90;99.90;;;;;;5096611;28;20047;-71
2023/05/25 04:33:45;;;;;;;7.73;3.83;;;7.90;99.90;;;;;;5096604;28;20036;-70
2023/05/25 04:36:13;;;;;;;6.85;3.70;;;8.00;99.90;;;;;;5096486;28;20123;-70
2023/05/25 04:38:38;;;;;;;9.10;4.00;;;8.00;99.90;;;;;;5096441;28;20044;-71
2023/05/25 04:41:05;;;;;;;9.23;3.95;;;8.10;99.90;;;;;;5096442;28;20054;-70
2023/05/25 04:43:31;;;;;;;8.10;3.75;;;8.20;99.90;;;;;;5096341;28;20119;-70
2023/05/25 04:45:58;;;;;;;11.63;4.50;;;8.30;99.90;;;;;;5096413;28;20043;-70
2023/05/25 04:48:24;;;;;;;12.00;4.30;;;8.30;99.90;;;;;;5096333;28;20040;-70
2023/05/25 04:50:51;;;;;;;12.52;4.50;;;8.40;99.90;;;;;;5096706;28;20465;-71
2023/05/25 04:53:17;;;;;;;9.27;4.22;;;8.40;99.90;;;;;;5096176;28;20047;-71
2023/05/25 04:55:43;;;;;;;7.75;4.25;;;8.40;99.90;;;;;;5096171;28;20036;-70
2023/05/25 04:58:08;;;;;;;8.93;4.53;;;8.50;99.90;;;;;;5096497;28;20071;-70
2023/05/25 05:00:35;;;;;;;9.35;4.78;;;9.00;99.90;;;;;;5096086;28;20047;-70
2023/05/25 05:03:00;;;;;;;10.13;4.60;;;8.60;99.90;;;;;;5096185;28;20051;-71
2023/05/25 05:05:26;;;;;;;12.85;4.43;;;8.60;99.90;;;;;;5095747;28;20032;-71
2023/05/25 05:07:52;;;;;;;12.10;4.32;;;8.70;99.90;;;;;;5096016;28;20055;-70
2023/05/25 05:10:18;;;;;;;9.80;4.55;;;9.20;99.90;;;;;;5095871;28;20105;-70
2023/05/25 05:12:44;;;;;;;10.30;5.10;;;8.80;99.90;;;;;;5095551;28;20498;-70
2023/05/25 05:15:10;;;;;;;7.05;4.18;;;8.90;99.90;;;;;;5095807;28;20048;-70
2023/05/25 05:17:35;;;;;;;10.80;4.80;;;9.00;99.90;;;;;;5095203;28;20043;-71
2023/05/25 05:20:03;;;;;;;8.63;4.32;;;9.10;99.90;;;;;;5095719;28;20040;-72
2023/05/25 05:22:29;;;;;;;13.77;4.97;;;9.20;99.90;;;;;;5095272;28;20097;-70
2023/05/25 05:24:55;;;;;;;12.80;5.00;;;9.50;99.90;;;;;;5095531;28;20040;-71
2023/05/25 05:27:21;;;;;;;11.13;5.00;;;9.50;99.90;;;;;;5095596;28;20035;-70
2023/05/25 05:29:46;;;;;;;12.35;4.53;;;9.70;99.90;;;;;;5095420;28;20382;-72
2023/05/25 05:32:12;;;;;;;11.90;4.20;;;9.90;99.90;;;;;;5095404;28;20043;-70
2023/05/25 05:34:38;;;;;;;11.43;4.90;;;10.20;99.90;;;;;;5095470;28;20122;-71
2023/05/25 05:37:03;;;;;;;12.38;4.72;;;10.30;99.90;;;;;;5095302;28;20042;-70
2023/05/25 05:39:29;;;;;;;9.05;4.47;;;10.50;99.90;;;;;;5095287;28;20093;-70
2023/05/25 05:41:55;;;;;;;9.23;4.18;;;10.70;99.90;;;;;;5095707;28;20040;-70
2023/05/25 05:44:21;;;;;;;9.90;4.70;;;10.90;99.90;;;;;;5095504;28;20109;-70
2023/05/25 05:46:47;;;;;;;8.40;4.45;;;11.20;99.90;;;;;;5095398;28;20086;-71
2023/05/25 05:49:12;;;;;;;9.68;4.40;;;11.50;99.90;;;;;;5094260;28;20075;-71
2023/05/25 05:51:38;;;;;;;8.90;4.00;;;11.70;99.90;;;;;;5093828;28;20414;-70
2023/05/25 05:54:04;;;;;;;13.30;4.22;;;12.00;99.90;;;;;;5094993;28;20028;-70
2023/05/25 05:56:30;;;;;;;16.58;3.90;;;12.00;99.90;;;;;;5095231;28;20376;-70
2023/05/25 05:58:56;;;;;;;11.95;4.32;;;12.20;99.90;;;;;;5094885;28;20035;-71
2023/05/25 06:01:22;;;;;;;11.83;4.03;;;12.50;99.90;;;;;;5094914;28;20036;-70
2023/05/25 06:03:48;;;;;;;9.70;3.55;;;12.80;99.90;;;;;;5094647;28;20123;-69
2023/05/25 06:06:14;;;;;;;8.32;3.65;;;13.00;99.90;;;;;;5094673;28;20068;-69
2023/05/25 06:08:42;;;;;;;7.63;3.45;;;13.20;99.90;;;;;;5094781;28;20105;-71
2023/05/25 06:11:08;;;;;;;10.05;4.38;;;13.40;99.90;;;;;;5094608;28;20044;-70
2023/05/25 06:13:34;;;;;;;11.30;3.27;;;13.50;99.90;;;;;;5093423;28;20047;-71
2023/05/25 06:15:59;;;;;;;9.65;3.63;;;13.70;99.90;;;;;;5094855;28;20130;-71
2023/05/25 06:18:25;;;;;;;11.68;3.50;;;13.80;99.90;;;;;;5094749;28;20387;-71
2023/05/25 06:20:51;;;;;;;12.68;3.17;;;14.30;99.90;;;;;;5094537;28;20047;-70
2023/05/25 06:23:17;;;;;;;12.73;2.92;;;14.00;99.90;;;;;;5094313;28;20041;-72
2023/05/25 06:25:44;;;;;;;7.25;2.90;;;13.90;99.90;;;;;;5094151;28;20115;-70
2023/05/25 06:28:09;;;;;;;8.68;2.78;;;14.10;99.90;;;;;;5093197;28;20036;-70
2023/05/25 06:30:35;;;;;;;7.40;2.77;;;14.10;99.90;;;;;;5093677;28;20046;-70
2023/05/25 06:33:01;;;;;;;6.50;2.60;;;14.10;99.90;;;;;;5094352;28;20115;-71
2023/05/25 06:35:26;;;;;;;7.38;3.00;;;14.30;99.90;;;;;;5094304;28;20371;-70
2023/05/25 06:37:52;;;;;;;8.38;3.08;;;14.20;99.90;;;;;;5094253;28;20032;-71
2023/05/25 06:40:18;;;;;;;11.13;3.17;;;14.30;99.90;;;;;;5093911;28;20036;-71
2023/05/25 06:42:43;;;;;;;4.95;2.90;;;14.30;99.90;;;;;;5094077;28;20047;-70
2023/05/25 06:45:09;;;;;;;7.07;3.05;;;14.20;99.90;;;;;;5094437;28;20410;-70
2023/05/25 06:47:35;;;;;;;6.73;2.50;;;14.30;99.90;;;;;;5093829;28;20036;-70
2023/05/25 06:50:01;;;;;;;8.95;2.40;;;14.30;99.90;;;;;;5094041;28;20093;-71
2023/05/25 06:52:27;;;;;;;11.43;3.13;;;14.40;99.90;;;;;;5094029;28;20043;-71
2023/05/25 06:54:54;;;;;;;4.73;2.17;;;15.00;99.90;;;;;;5093861;28;20603;-71
2023/05/25 06:57:19;;;;;;;6.60;2.70;;;14.80;99.90;;;;;;5094010;28;20067;-70
2023/05/25 06:59:45;;;;;;;5.90;2.20;;;14.80;99.90;;;;;;5094196;28;20459;-70
2023/05/25 07:02:10;;;;;;;6.43;2.25;;;14.70;99.90;;;;;;5093908;28;20126;-72
2023/05/25 07:04:36;;;;;;;5.80;2.70;;;14.70;99.90;;;;;;5093619;28;20101;-71
2023/05/25 07:07:02;;;;;;;6.03;2.30;;;14.70;99.90;;;;;;5093768;28;20047;-71
2023/05/25 07:09:28;;;;;;;4.85;2.08;;;14.80;99.90;;;;;;5093729;28;20036;-70
2023/05/25 07:11:54;;;;;;;7.82;2.58;;;15.60;99.90;;;;;;5093765;28;20504;-71
2023/05/25 07:14:20;;;;;;;6.80;2.23;;;15.20;99.90;;;;;;5093677;28;20483;-71
2023/05/25 07:16:45;;;;;;;6.45;2.20;;;15.00;99.90;;;;;;5093728;28;20043;-71
2023/05/25 07:19:11;;;;;;;5.85;2.20;;;15.00;99.90;;;;;;5093708;28;20051;-71
2023/05/25 07:21:36;;;;;;;4.82;2.00;;;15.30;99.90;;;;;;5093619;28;20106;-70
2023/05/25 07:24:03;;;;;;;10.53;2.83;;;15.20;99.90;;;;;;5093470;28;20036;-70
2023/05/25 07:26:33;;;;;;;5.18;2.10;;;15.10;99.90;;;;;;5093562;28;20036;-71
2023/05/25 07:28:59;;;;;;;9.32;2.83;;;15.10;99.90;;;;;;5093535;28;20042;-71
2023/05/25 07:31:25;;;;;;;7.40;2.97;;;15.20;99.90;;;;;;5093845;28;20036;-70
2023/05/25 07:33:52;;;;;;;6.60;2.05;;;15.40;99.90;;;;;;5093553;28;20266;-71
2023/05/25 07:36:17;;;;;;;;;;;15.60;99.90;;;;;;5093903;28;20040;-71
2023/05/25 07:38:43;;;;;;;9.63;2.47;;;15.60;99.90;;;;;;5093418;28;19916;-71
2023/05/25 07:41:09;;;;;;;10.27;2.43;;;15.50;99.90;;;;;;5095725;28;20097;-71
2023/05/25 07:43:34;;;;;;;8.63;1.97;;;15.60;99.90;;;;;;5097487;28;20085;-70
2023/05/25 07:46:03;;;;;;;5.87;1.87;;;15.50;99.90;;;;;;5097540;28;20036;-71
2023/05/25 07:48:28;;;;;;;6.18;2.28;;;15.50;99.90;;;;;;5097548;28;20044;-70
2023/05/25 07:50:54;;;;;;;7.73;2.03;;;15.50;99.90;;;;;;5097419;28;20039;-71
2023/05/25 07:53:20;;;;;;;11.50;2.07;;;15.50;99.90;;;;;;5097183;28;20461;-70
2023/05/25 07:55:45;;;;;;;7.28;2.08;;;15.60;99.90;;;;;;5096707;28;20050;-71
2023/05/25 07:58:11;;;;;;;7.50;2.53;;;15.60;99.90;;;;;;5097242;28;20093;-71
2023/05/25 08:00:37;;;;;;;9.63;1.80;;;15.60;99.90;;;;;;5097363;28;20044;-70
2023/05/25 08:03:02;;;;;;;8.63;1.90;;;15.60;99.90;;;;;;5097279;28;20036;-71
2023/05/25 08:05:28;;;;;;;7.90;2.07;;;15.60;99.90;;;;;;5097155;28;20044;-69
2023/05/25 08:07:53;;;;;;;9.45;2.03;;;15.70;99.90;;;;;;5097314;28;20056;-71
2023/05/25 08:10:19;;;;;;;4.70;1.70;;;15.60;99.90;;;;;;5096991;28;20126;-71
2023/05/25 08:12:45;;;;;;;7.85;2.40;;;15.60;99.90;;;;;;5096922;28;20115;-70
2023/05/25 08:15:12;;;;;;;8.93;2.10;;;15.50;99.90;;;;;;5097029;28;20028;-70
2023/05/25 08:17:38;;;;;;;7.70;2.00;;;15.60;99.90;;;;;;5096945;28;20036;-71
2023/05/25 08:20:07;;;;;;;7.23;2.23;;;15.40;99.90;;;;;;5096825;28;20071;-70
2023/05/25 08:22:33;;;;;;;5.32;1.85;;;15.40;99.90;;;;;;5096641;28;20127;-71
2023/05/25 08:24:59;;;;;;;9.23;2.23;;;15.40;99.90;;;;;;5096712;28;20114;-71
2023/05/25 08:27:24;;;;;;;10.27;2.35;;;15.40;99.90;;;;;;5096791;28;20050;-71
2023/05/25 08:29:50;;;;;;;5.72;2.22;;;15.30;99.90;;;;;;5096670;28;20364;-70
2023/05/25 08:32:16;;;;;;;12.63;2.55;;;15.20;99.90;;;;;;5096709;28;20122;-71
2023/05/25 08:34:41;;;;;;;10.50;2.70;;;15.30;99.90;;;;;;5096634;28;20040;-71
2023/05/25 08:37:07;;;;;;;7.63;1.85;;;15.80;99.90;;;;;;5096814;28;20526;-72
2023/05/25 08:39:32;;;;;;;7.65;2.15;;;15.40;99.90;;;;;;5096509;28;20043;-71
2023/05/25 08:41:59;;;;;;;4.60;2.10;;;15.50;99.90;;;;;;5096793;28;20047;-71
2023/05/25 08:44:26;;;;;;;9.27;2.17;;;15.70;99.90;;;;;;5096287;28;20036;-71
2023/05/25 08:46:55;;;;;;;6.57;2.47;;;15.60;99.90;;;;;;5096319;28;20036;-72
2023/05/25 08:49:22;;;;;;;7.88;2.33;;;15.60;99.90;;;;;;5096261;28;20127;-71
2023/05/25 08:51:53;;;;;;;8.13;2.10;;;15.50;99.90;;;;;;5095282;28;20141;-71
2023/05/25 08:54:33;;;;;;;9.73;2.20;;;15.50;99.90;;;;;;5096216;28;20364;-71
2023/05/25 08:57:02;;;;;;;7.00;2.88;;;15.40;99.90;;;;;;5096497;28;20489;-70
2023/05/25 08:59:41;;;;;;;7.88;1.92;;;15.20;99.90;;;;;;5096256;28;20043;-70
2023/05/25 09:02:44;;;;;;;9.52;3.10;;;15.20;99.90;;;;;;5096101;28;20052;-71
2023/05/25 09:05:09;;;;;;;11.07;2.53;;;15.10;99.90;;;;;;5095996;28;20081;-71
2023/05/25 09:07:35;;;;;;;8.53;2.50;;;15.30;99.90;;;;;;5095543;28;20083;-70
2023/05/25 09:10:02;;;;;;;12.33;2.83;;;15.00;99.90;;;;;;5096061;28;20081;-71
2023/05/25 09:12:30;;;;;;;8.00;2.25;;;15.10;99.90;;;;;;5095787;28;20463;-72
2023/05/25 09:14:57;;;;;;;8.18;2.42;;;15.20;99.90;;;;;;5095650;28;20135;-71
2023/05/25 09:17:22;;;;;;;;;;;15.20;99.90;;;;;;5096601;28;20043;-71
2023/05/25 09:19:48;;;;;;;11.45;3.47;;;15.30;99.90;;;;;;5095708;28;20286;-70
2023/05/25 09:22:14;;;;;;;10.80;2.47;;;15.40;99.90;;;;;;5095671;28;20040;-70
2023/05/25 09:24:40;;;;;;;9.80;2.47;;;15.50;99.90;;;;;;5095485;28;20440;-71
2023/05/25 09:27:26;;;;;;;11.60;2.80;;;15.70;99.90;;;;;;5095634;28;20056;-71
2023/05/25 09:29:51;;;;;;;11.73;2.95;;;16.00;99.90;;;;;;5095218;28;20464;-71
2023/05/25 09:32:18;;;;;;;10.87;2.77;;;16.20;99.90;;;;;;5095494;28;20076;-71
2023/05/25 09:34:44;;;;;;;11.65;3.25;;;16.10;99.90;;;;;;5095439;28;20040;-71
2023/05/25 09:37:15;;;;;;;11.60;2.63;;;16.10;99.90;;;;;;5095403;28;20040;-70
2023/05/25 09:39:42;;;;;;;11.40;2.67;;;16.00;99.90;;;;;;5095295;28;20472;-71
2023/05/25 09:42:08;;;;;;;8.32;2.40;;;16.20;99.90;;;;;;5095197;28;20495;-70
2023/05/25 09:44:33;;;;;;;10.38;2.67;;;16.40;99.90;;;;;;5095513;28;20044;-71
2023/05/25 09:47:00;;;;;;;9.02;2.67;;;16.60;99.90;;;;;;5095068;28;20464;-70
2023/05/25 09:49:26;;;;;;;13.85;2.85;;;16.80;99.90;;;;;;5095129;28;20091;-71
2023/05/25 09:51:52;;;;;;;9.10;2.10;;;16.70;99.90;;;;;;5095093;28;20040;-72
2023/05/25 09:54:18;;;;;;;13.17;3.00;;;16.70;99.90;;;;;;5094821;28;20088;-71
2023/05/25 09:56:44;;;;;;;13.32;3.25;;;16.90;99.90;;;;;;5094917;28;20278;-71
2023/05/25 09:59:10;;;;;;;11.68;2.45;;;17.10;99.90;;;;;;5095195;28;20047;-71
2023/05/25 10:01:36;;;;;;;8.20;2.45;;;17.20;99.90;;;;;;5094889;28;20047;-71
2023/05/25 10:04:02;;;;;;;14.13;3.03;;;16.90;99.90;;;;;;5093486;28;20433;-72
2023/05/25 10:06:28;;;;;;;10.30;2.40;;;16.80;99.90;;;;;;5094787;28;20052;-71
2023/05/25 10:08:56;;;;;;;9.83;3.03;;;16.50;99.90;;;;;;5094949;28;20032;-71
2023/05/25 10:11:23;;;;;;;13.70;2.92;;;16.60;99.90;;;;;;5094633;28;20044;-71
2023/05/25 10:13:51;;;;;;;10.20;2.65;;;16.70;99.90;;;;;;5094004;28;20380;-71
2023/05/25 10:16:17;;;;;;;18.65;3.58;;;16.70;99.90;;;;;;5094574;28;20044;-71
2023/05/25 10:19:00;;;;;;;13.32;3.13;;;16.50;99.90;;;;;;5094499;28;20468;-71
2023/05/25 10:21:30;;;;;;;9.38;2.63;;;16.40;99.90;;;;;;5094682;28;20077;-71
2023/05/25 10:24:05;;;;;;;10.02;2.80;;;16.70;99.90;;;;;;5094107;28;20039;-72
2023/05/25 10:26:38;;;;;;;10.07;2.90;;;17.00;99.90;;;;;;5094179;28;20452;-71
2023/05/25 10:29:04;;;;;;;12.38;3.15;;;17.00;99.90;;;;;;5094441;28;20035;-71
2023/05/25 10:31:32;;;;;;;15.98;2.80;;;16.90;99.90;;;;;;5094546;28;20086;-70
2023/05/25 10:33:58;;;;;;;6.30;2.03;;;16.90;99.90;;;;;;5093003;28;20044;-72
2023/05/25 10:36:25;;;;;;;7.00;2.20;;;17.30;99.90;;;;;;5094252;28;20043;-72
2023/05/25 10:38:52;;;;;;;9.60;2.70;;;17.40;99.90;;;;;;5094190;28;20096;-71
2023/05/25 10:41:19;;;;;;;13.65;2.42;;;17.50;99.90;;;;;;5094225;28;20044;-72
2023/05/25 10:43:46;;;;;;;15.00;3.10;;;17.50;99.90;;;;;;5094064;28;20039;-71
2023/05/25 10:46:13;;;;;;;10.07;3.03;;;17.50;99.90;;;;;;5094152;28;20515;-71
2023/05/25 10:48:45;;;;;;;12.63;2.58;;;17.70;99.90;;;;;;5092970;28;20040;-71
2023/05/25 10:51:11;;;;;;;11.30;2.63;;;17.70;99.90;;;;;;5094080;28;20043;-71
2023/05/25 10:53:37;;;;;;;12.18;2.42;;;17.60;99.90;;;;;;5094570;28;20040;-71
2023/05/25 10:56:05;;;;;;;9.60;2.80;;;17.90;99.90;;;;;;5094014;28;20043;-72
2023/05/25 10:58:32;;;;;;;19.60;3.47;;;17.80;99.90;;;;;;5126952;27;20058;-71
2023/05/25 11:01:07;;;;;;;9.32;2.20;;;18.00;99.90;;;;;;5093787;28;20459;-72
2023/05/25 11:03:55;;;;;;;12.00;2.80;;;18.10;99.90;;;;;;5093736;28;20036;-70
2023/05/25 11:06:22;;;;;;;;;;;17.80;99.90;;;;;;5094301;28;20052;-71
2023/05/25 11:09:04;;;;;;;11.43;3.00;;;17.70;99.90;;;;;;5093827;28;19962;-71
2023/05/25 11:11:42;;;;;;;8.77;2.30;;;17.70;99.90;;;;;;5094120;28;20051;-72
2023/05/25 11:14:29;;;;;;;12.75;2.40;;;17.90;99.90;;;;;;5093697;28;20047;-72
2023/05/25 11:17:14;;;;;;;11.00;2.50;;;18.20;99.90;;;;;;5093373;28;20044;-71
2023/05/25 11:19:49;;;;;;;9.13;2.55;;;18.20;99.90;;;;;;5093558;28;20093;-72
2023/05/25 11:22:34;;;;;;;8.73;2.45;;;18.00;99.90;;;;;;5093555;28;20044;-71
2023/05/25 11:25:00;;;;;;;10.20;2.35;;;18.10;99.90;;;;;;5093580;28;20472;-72
2023/05/25 11:27:30;;;;;;;;;;;18.10;99.90;;;;;;5093186;28;20433;-71
2023/05/25 11:29:58;;;;;;;8.15;2.38;;;17.80;99.90;;;;;;5093379;28;19923;-71
2023/05/25 11:32:24;;;;;;;9.20;2.75;;;17.70;99.90;;;;;;5093321;28;20089;-73
2023/05/25 11:34:56;;;;;;;9.43;2.33;;;17.80;99.90;;;;;;5093392;28;20122;-71
2023/05/25 11:37:27;;;;;;;11.50;2.80;;;17.90;99.90;;;;;;5093340;28;20472;-70
2023/05/25 11:39:53;;;;;;;8.88;2.35;;;17.90;99.90;;;;;;5093412;28;20032;-71
2023/05/25 11:42:21;;;;;;;11.25;2.45;;;18.10;99.90;;;;;;5093432;28;20035;-72
2023/05/25 11:44:46;;;;;;;15.23;2.50;;;18.20;99.90;;;;;;5093022;28;20472;-70
2023/05/25 11:47:13;;;;;;;9.30;2.83;;;18.20;99.90;;;;;;5093448;28;20040;-71
2023/05/25 11:49:46;;;;;;;12.85;2.83;;;18.40;99.90;;;;;;5093357;28;20040;-71
2023/05/25 11:52:23;;;;;;;11.50;2.40;;;18.50;99.90;;;;;;5093834;28;20048;-71
2023/05/25 11:54:48;;;;;;;7.13;2.03;;;18.20;99.90;;;;;;5093688;28;20032;-71
2023/05/25 11:57:18;;;;;;;7.87;2.40;;;18.40;99.90;;;;;;5093620;28;20127;-71
2023/05/25 11:59:52;;;;;;;10.02;3.00;;;18.50;99.90;;;;;;5093223;28;20040;-70
2023/05/25 12:02:18;;;;;;;18.05;3.35;;;18.50;99.90;;;;;;5093263;28;20051;-71
2023/05/25 12:04:55;;;;;;;7.15;2.47;;;18.60;99.90;;;;;;5126048;28;20036;-72
2023/05/25 12:07:22;;;;;;;7.35;2.22;;;18.50;99.90;;;;;;5093066;28;20123;-72
2023/05/25 12:09:47;;;;;;;13.38;2.60;;;18.60;99.90;;;;;;5093421;28;20043;-70
2023/05/25 12:12:13;;;;;;;21.87;3.17;;;18.60;99.90;;;;;;5093494;28;20081;-72
2023/05/25 12:14:49;;;;;;;10.73;2.90;;;18.50;99.90;;;;;;5093092;28;20113;-71
2023/05/25 12:17:16;;;;;;;11.63;2.83;;;18.30;99.90;;;;;;5093533;28;20043;-71
2023/05/25 12:19:41;;;;;;;11.25;2.80;;;18.20;99.90;;;;;;5092785;28;20028;-71
2023/05/25 12:22:08;;;;;;;14.70;3.33;;;18.20;99.90;;;;;;5093084;28;20040;-72
2023/05/25 12:24:33;;;;;;;7.47;2.65;;;18.30;99.90;;;;;;5092948;28;20206;-72
2023/05/25 12:27:01;;;;;;;13.57;2.93;;;18.30;99.90;;;;;;5093406;28;20079;-71
2023/05/25 12:29:27;;;;;;;11.40;2.65;;;18.20;99.90;;;;;;5096653;28;20075;-72
2023/05/25 12:32:01;;;;;;;19.25;3.17;;;18.10;99.90;;;;;;5096581;28;20040;-71
2023/05/25 12:34:29;;;;;;;12.30;3.15;;;18.30;99.90;;;;;;5096685;28;20047;-71
2023/05/25 12:36:56;;;;;;;10.52;3.28;;;18.40;99.90;;;;;;5096835;28;20044;-71
2023/05/25 12:39:30;;;;;;;11.90;3.20;;;18.60;99.90;;;;;;5096542;28;20046;-71
2023/05/25 12:41:58;;;;;;;8.90;2.63;;;18.70;99.90;;;;;;5096090;28;20510;-71
2023/05/25 12:44:32;;;;;;;12.30;2.80;;;18.60;99.90;;;;;;5129546;27;20044;-72
2023/05/25 12:47:22;;;;;;;9.60;3.33;;;18.50;99.90;;;;;;5096413;28;20039;-73
2023/05/25 12:50:11;;;;;;;12.50;2.65;;;18.60;99.90;;;;;;5096318;28;20479;-72
2023/05/25 12:52:45;;;;;;;14.60;2.88;;;18.70;99.90;;;;;;5096317;28;20050;-72